Main page
METAR-TAF:

METAR-TAF

Airports :

Casement Aerodrome

Dublin, Ireland

latitude: 53-18-06N, longitude: 6-27-04W, elevation: 97 m

Current weather observation

The report was made 41 minutes ago, at 04:00 UTC
Wind 11 kt from the Southwest
Temperature 16°C
Humidity 94%
Pressure 1016 hPa
Visibility: 5000 m
Overcast at a height of 500 ft
mist

METAR: EIME 220400Z 23011KT 5000 BR OVC005 16/15 Q1016

Time: 05:41 (04:41 UTC)

Forecast

The report was made 2 hours and 41 minutes ago, at 02:00 UTC
Forecast valid from 22 at 03 UTC to 22 at 12 UTC
Wind 8 kt from the West
Visibility 10 km or more
Broken clouds at a height of 1500 ft
Temporary
from 22 at 03 UTC to 22 at 09 UTC
Broken clouds at a height of 800 ft
Becoming
from 22 at 04 UTC to 22 at 06 UTC
Wind 8 kt from the Southwest

TAF: EIME 220200Z 2203/2212 26008KT 9999 BKN015 TEMPO 2203/2209 BKN008 BECMG 2204/2206 23008KT

Weather observations and forecasts of more than 4000 airports (METAR and TAF reports).

The available stations are represented by yellow and red dots on the map.

Hover mouse over dot to see the name of the station.

Then click to see weather observations and forecasts.

To change the map : click on the green buttons with a black cross to zoom in, on the green button with a dash to zoom out, or on the green arrows for adjacent maps.


METAR-TAF: